Time;durP1;ratioP1;P1;durP2;ratioP2;P2;SDS_P1;SDS_P2;PMS_P1;PMS_P2;Temp;Humidity;BMP_temperature;BMP_pressure;BME280_temperature;BME280_humidity;BME280_pressure;Samples;Min_cycle;Max_cycle;Signal;HPM_P1;HPM_P2
2023/10/21 00:02:00;;;;;;;;;3.00;3.00;;;;;;;;5069845;28;8838;-85
2023/10/21 00:04:28;;;;;;;;;7.25;4.25;;;;;;;;5071535;28;8963;-83
2023/10/21 00:06:55;;;;;;;;;3.00;3.00;;;;;;;;5070571;28;8869;-83
2023/10/21 00:09:23;;;;;;;;;5.75;5.75;;;;;;;;5061960;28;8875;-84
2023/10/21 00:11:52;;;;;;;;;4.00;4.00;;;;;;;;5060836;28;8872;-84
2023/10/21 00:14:21;;;;;;;;;3.25;3.25;;;;;;;;5063156;28;8846;-82
2023/10/21 00:16:49;;;;;;;;;2.00;2.00;;;;;;;;5071497;28;9653;-83
2023/10/21 00:19:17;;;;;;;;;5.50;5.00;;;;;;;;5076470;28;8842;-83
2023/10/21 00:21:47;;;;;;;;;4.75;4.75;;;;;;;;5075985;28;8887;-84
2023/10/21 00:24:15;;;;;;;;;3.00;2.75;;;;;;;;5068882;28;8887;-83
2023/10/21 00:26:47;;;;;;;;;3.50;3.50;;;;;;;;5071925;28;8884;-82
2023/10/21 00:29:16;;;;;;;;;3.50;2.25;;;;;;;;5069135;28;8859;-82
2023/10/21 00:31:43;;;;;;;;;3.00;3.00;;;;;;;;5066689;28;8837;-82
2023/10/21 00:34:10;;;;;;;;;3.00;3.00;;;;;;;;5071643;28;9650;-83
2023/10/21 00:36:38;;;;;;;;;5.25;5.25;;;;;;;;5063897;28;8875;-84
2023/10/21 00:39:10;;;;;;;;;6.00;4.25;;;;;;;;5067124;28;8880;-84
2023/10/21 00:41:37;;;;;;;;;3.75;3.00;;;;;;;;5058687;28;8997;-82
2023/10/21 00:44:05;;;;;;;;;3.25;3.25;;;;;;;;5061859;28;8881;-84
2023/10/21 00:46:35;;;;;;;;;4.25;3.25;;;;;;;;5059544;28;8842;-83
2023/10/21 00:49:04;;;;;;;;;3.25;3.25;;;;;;;;5070568;28;9652;-85
2023/10/21 00:51:35;;;;;;;;;4.50;3.00;;;;;;;;5070301;28;8834;-81
2023/10/21 00:54:02;;;;;;;;;5.00;4.00;;;;;;;;5064886;28;8862;-83
2023/10/21 00:56:30;;;;;;;;;3.50;3.50;;;;;;;;5056685;28;8867;-84
2023/10/21 00:58:57;;;;;;;;;3.00;3.00;;;;;;;;5053528;28;8861;-82
2023/10/21 01:01:27;;;;;;;;;4.00;3.00;;;;;;;;5060873;28;8829;-83
2023/10/21 01:03:57;;;;;;;;;6.25;5.75;;;;;;;;5067334;28;8948;-83
2023/10/21 01:06:24;;;;;;;;;5.25;5.25;;;;;;;;5062731;28;8851;-83
2023/10/21 01:08:53;;;;;;;;;6.00;6.00;;;;;;;;5068154;28;9740;-83
2023/10/21 01:11:21;;;;;;;;;4.75;4.75;;;;;;;;5063105;28;8842;-84
2023/10/21 01:13:48;;;;;;;;;6.00;4.00;;;;;;;;5063939;28;8853;-84
2023/10/21 01:16:15;;;;;;;;;5.50;3.50;;;;;;;;5062590;28;8865;-82
2023/10/21 01:18:43;;;;;;;;;5.00;3.25;;;;;;;;5063390;28;8871;-84
2023/10/21 01:21:12;;;;;;;;;4.25;4.25;;;;;;;;5068233;28;8873;-83
2023/10/21 01:23:41;;;;;;;;;3.50;3.50;;;;;;;;5068125;28;8858;-83
2023/10/21 01:26:08;;;;;;;;;5.25;4.00;;;;;;;;5064969;28;8956;-84
2023/10/21 01:28:36;;;;;;;;;4.75;3.75;;;;;;;;5061108;28;8866;-84
2023/10/21 01:31:03;;;;;;;;;2.75;2.75;;;;;;;;5067417;28;8797;-86
2023/10/21 01:33:30;;;;;;;;;3.75;3.75;;;;;;;;5065024;28;8881;-83
2023/10/21 01:35:58;;;;;;;;;4.00;2.75;;;;;;;;5069208;28;8862;-84
2023/10/21 01:38:25;;;;;;;;;5.00;3.00;;;;;;;;5066608;28;8859;-84
2023/10/21 01:40:54;;;;;;;;;5.00;2.75;;;;;;;;5066544;28;8862;-83
2023/10/21 01:43:24;;;;;;;;;3.00;3.00;;;;;;;;5069396;28;8839;-82
2023/10/21 01:45:51;;;;;;;;;1.00;1.00;;;;;;;;5068660;28;8871;-82
2023/10/21 01:48:21;;;;;;;;;1.00;1.00;;;;;;;;5069167;28;8850;-82
2023/10/21 01:50:49;;;;;;;;;0.00;0.00;;;;;;;;5059862;28;8889;-81
2023/10/21 01:53:17;;;;;;;;;0.75;0.75;;;;;;;;5065908;28;8900;-84
2023/10/21 01:55:43;;;;;;;;;0.00;0.00;;;;;;;;5068626;28;8842;-82
2023/10/21 01:58:11;;;;;;;;;0.00;0.00;;;;;;;;5069380;28;8952;-83
2023/10/21 02:00:39;;;;;;;;;0.00;0.00;;;;;;;;5058214;28;8784;-82
2023/10/21 02:03:06;;;;;;;;;0.00;0.00;;;;;;;;5066298;28;8900;-82
2023/10/21 02:05:34;;;;;;;;;0.00;0.00;;;;;;;;5061976;28;8853;-81
2023/10/21 02:08:02;;;;;;;;;0.75;0.75;;;;;;;;5055215;28;8865;-82
2023/10/21 02:10:29;;;;;;;;;1.00;1.00;;;;;;;;5059987;28;8841;-83
2023/10/21 02:12:57;;;;;;;;;0.50;0.50;;;;;;;;5066714;28;8972;-82
2023/10/21 02:15:25;;;;;;;;;0.00;0.00;;;;;;;;5071896;28;8839;-83
2023/10/21 02:17:53;;;;;;;;;0.00;0.00;;;;;;;;5072468;28;8847;-84
2023/10/21 02:20:20;;;;;;;;;0.50;0.50;;;;;;;;5063763;28;8861;-81
2023/10/21 02:22:47;;;;;;;;;0.00;0.00;;;;;;;;5062762;28;8862;-83
2023/10/21 02:25:16;;;;;;;;;0.00;0.00;;;;;;;;5065887;28;8851;-82
2023/10/21 02:27:48;;;;;;;;;0.00;0.00;;;;;;;;5068882;28;8843;-83
2023/10/21 02:30:16;;;;;;;;;1.50;0.00;;;;;;;;5066718;28;8867;-82
2023/10/21 02:32:45;;;;;;;;;0.00;0.00;;;;;;;;5064424;28;9632;-82
2023/10/21 02:35:13;;;;;;;;;0.00;0.00;;;;;;;;5066658;28;8851;-83
2023/10/21 02:37:40;;;;;;;;;0.00;0.00;;;;;;;;5063423;28;8980;-83
2023/10/21 02:40:09;;;;;;;;;0.00;0.00;;;;;;;;5066245;28;8889;-83
2023/10/21 02:42:37;;;;;;;;;0.00;0.00;;;;;;;;5068058;28;8863;-83
2023/10/21 02:45:05;;;;;;;;;0.00;0.00;;;;;;;;5061705;28;9568;-85
2023/10/21 02:47:32;;;;;;;;;0.00;0.00;;;;;;;;5061671;28;9008;-83
2023/10/21 02:50:01;;;;;;;;;0.00;0.00;;;;;;;;5066624;28;8870;-85
2023/10/21 02:52:28;;;;;;;;;0.25;0.00;;;;;;;;5067431;28;8843;-81
2023/10/21 02:54:55;;;;;;;;;0.25;0.00;;;;;;;;5064483;28;8967;-82
2023/10/21 02:57:23;;;;;;;;;0.00;0.00;;;;;;;;5058653;28;8862;-81
2023/10/21 02:59:50;;;;;;;;;0.00;0.00;;;;;;;;5058526;28;8897;-83
2023/10/21 03:02:17;;;;;;;;;0.00;0.00;;;;;;;;5060977;28;8799;-81
2023/10/21 03:04:44;;;;;;;;;0.00;0.00;;;;;;;;5068353;28;8953;-81
2023/10/21 03:07:15;;;;;;;;;0.00;0.00;;;;;;;;5063574;28;8916;-83
2023/10/21 03:09:43;;;;;;;;;0.00;0.00;;;;;;;;5069008;28;8859;-82
2023/10/21 03:12:10;;;;;;;;;0.00;0.00;;;;;;;;5067921;28;8893;-83
2023/10/21 03:14:40;;;;;;;;;0.00;0.00;;;;;;;;5068072;28;8859;-82
2023/10/21 03:17:07;;;;;;;;;0.00;0.00;;;;;;;;5060462;28;8843;-81
2023/10/21 03:19:38;;;;;;;;;0.00;0.00;;;;;;;;5059842;28;8919;-81
2023/10/21 03:22:05;;;;;;;;;0.00;0.00;;;;;;;;5067964;28;8835;-83
2023/10/21 03:24:40;;;;;;;;;0.00;0.00;;;;;;;;5067058;28;8842;-81
2023/10/21 03:27:07;;;;;;;;;0.00;0.00;;;;;;;;5052917;28;9514;-82
2023/10/21 03:29:34;;;;;;;;;0.00;0.00;;;;;;;;5059976;28;8870;-85
2023/10/21 03:32:03;;;;;;;;;0.00;0.00;;;;;;;;5065627;28;8809;-80
2023/10/21 03:34:30;;;;;;;;;0.00;0.00;;;;;;;;5058179;28;8989;-81
2023/10/21 03:36:57;;;;;;;;;0.00;0.00;;;;;;;;5066369;28;8823;-81
2023/10/21 03:39:26;;;;;;;;;0.00;0.00;;;;;;;;5066833;28;8861;-82
2023/10/21 03:41:54;;;;;;;;;0.00;0.00;;;;;;;;5068072;28;8954;-81
2023/10/21 03:44:21;;;;;;;;;0.00;0.00;;;;;;;;5067108;28;8977;-80
2023/10/21 03:46:49;;;;;;;;;0.00;0.00;;;;;;;;5063014;28;8970;-81
2023/10/21 03:49:17;;;;;;;;;0.00;0.00;;;;;;;;5049857;28;8850;-81
2023/10/21 03:51:47;;;;;;;;;0.00;0.00;;;;;;;;5063933;28;8855;-79
2023/10/21 03:54:17;;;;;;;;;0.00;0.00;;;;;;;;5070616;28;8839;-84
2023/10/21 03:56:44;;;;;;;;;0.00;0.00;;;;;;;;5067369;28;8837;-82
2023/10/21 03:59:13;;;;;;;;;0.00;0.00;;;;;;;;5061689;28;8882;-83
2023/10/21 04:01:40;;;;;;;;;0.00;0.00;;;;;;;;5072109;28;8807;-82
2023/10/21 04:04:07;;;;;;;;;0.00;0.00;;;;;;;;5071560;28;8873;-82
2023/10/21 04:06:35;;;;;;;;;0.00;0.00;;;;;;;;5064291;28;8847;-82
2023/10/21 04:09:02;;;;;;;;;0.00;0.00;;;;;;;;5053291;28;8873;-79
2023/10/21 04:11:30;;;;;;;;;0.00;0.00;;;;;;;;5071151;28;8891;-82
2023/10/21 04:13:57;;;;;;;;;0.00;0.00;;;;;;;;5070255;28;8869;-81
2023/10/21 04:16:26;;;;;;;;;0.00;0.00;;;;;;;;5066835;28;9747;-80
2023/10/21 04:18:53;;;;;;;;;3.25;0.00;;;;;;;;5064019;28;8854;-81
2023/10/21 04:21:25;;;;;;;;;0.00;0.00;;;;;;;;5061908;28;9013;-80
2023/10/21 04:23:52;;;;;;;;;0.00;0.00;;;;;;;;5067315;28;8843;-79
2023/10/21 04:26:19;;;;;;;;;0.00;0.00;;;;;;;;5068361;28;8841;-80
2023/10/21 04:28:47;;;;;;;;;0.00;0.00;;;;;;;;5070374;28;8850;-79
2023/10/21 04:31:14;;;;;;;;;0.00;0.00;;;;;;;;5064779;28;8783;-80
2023/10/21 04:33:42;;;;;;;;;0.00;0.00;;;;;;;;5070378;28;8886;-80
2023/10/21 04:36:10;;;;;;;;;1.00;0.00;;;;;;;;5069764;28;9679;-82
2023/10/21 04:38:37;;;;;;;;;0.75;0.00;;;;;;;;5068082;28;8895;-79
2023/10/21 04:41:07;;;;;;;;;0.00;0.00;;;;;;;;5070242;28;8855;-80
2023/10/21 04:43:34;;;;;;;;;0.00;0.00;;;;;;;;5066789;28;8861;-80
2023/10/21 04:46:01;;;;;;;;;0.00;0.00;;;;;;;;5067671;28;8863;-83
2023/10/21 04:48:28;;;;;;;;;0.00;0.00;;;;;;;;5066980;28;8861;-81
2023/10/21 04:50:57;;;;;;;;;0.75;0.00;;;;;;;;5050970;28;8857;-80
2023/10/21 04:53:24;;;;;;;;;2.50;0.00;;;;;;;;5064754;28;8854;-79
2023/10/21 04:55:54;;;;;;;;;0.00;0.00;;;;;;;;5071136;28;9618;-78
2023/10/21 04:58:23;;;;;;;;;0.00;0.00;;;;;;;;5065558;28;8896;-79
2023/10/21 05:00:50;;;;;;;;;0.25;0.00;;;;;;;;5069346;28;8807;-81
2023/10/21 05:03:17;;;;;;;;;3.00;0.00;;;;;;;;5067292;28;8847;-84
2023/10/21 05:05:45;;;;;;;;;0.00;0.00;;;;;;;;5062309;28;8850;-79
2023/10/21 05:08:14;;;;;;;;;0.00;0.00;;;;;;;;5063840;28;8869;-80
2023/10/21 05:10:41;;;;;;;;;0.00;0.00;;;;;;;;5069084;28;9602;-80
2023/10/21 05:13:08;;;;;;;;;0.00;0.00;;;;;;;;5061725;28;8843;-81
2023/10/21 05:15:36;;;;;;;;;0.00;0.00;;;;;;;;5064829;28;8874;-81
2023/10/21 05:18:05;;;;;;;;;0.00;0.00;;;;;;;;5068696;28;8819;-84
2023/10/21 05:20:33;;;;;;;;;0.25;0.00;;;;;;;;5065904;28;8986;-81
2023/10/21 05:23:00;;;;;;;;;0.00;0.00;;;;;;;;5058112;28;8854;-80
2023/10/21 05:25:28;;;;;;;;;0.00;0.00;;;;;;;;5065725;28;8992;-82
2023/10/21 05:27:56;;;;;;;;;0.25;0.25;;;;;;;;5061028;28;8994;-83
2023/10/21 05:30:23;;;;;;;;;0.25;0.25;;;;;;;;5069892;28;8844;-79
2023/10/21 05:32:50;;;;;;;;;1.50;0.00;;;;;;;;5070258;28;8886;-78
2023/10/21 05:35:18;;;;;;;;;0.00;0.00;;;;;;;;5069754;28;8960;-79
2023/10/21 05:37:45;;;;;;;;;0.00;0.00;;;;;;;;5068568;28;8859;-79
2023/10/21 05:40:13;;;;;;;;;0.00;0.00;;;;;;;;5072619;28;8839;-80
2023/10/21 05:42:42;;;;;;;;;0.50;0.50;;;;;;;;5073865;28;8866;-85
2023/10/21 05:45:10;;;;;;;;;1.25;0.00;;;;;;;;5074502;28;8835;-85
2023/10/21 05:47:37;;;;;;;;;0.00;0.00;;;;;;;;5074017;28;8953;-81
2023/10/21 05:50:08;;;;;;;;;0.50;0.00;;;;;;;;5072452;28;8958;-82
2023/10/21 05:52:35;;;;;;;;;0.00;0.00;;;;;;;;5068979;28;8928;-83
2023/10/21 05:55:05;;;;;;;;;0.00;0.00;;;;;;;;5068025;28;8886;-81
2023/10/21 05:57:32;;;;;;;;;0.50;0.00;;;;;;;;5060854;28;8870;-79
2023/10/21 06:00:01;;;;;;;;;0.00;0.00;;;;;;;;5067096;28;8866;-81
2023/10/21 06:02:28;;;;;;;;;0.00;0.00;;;;;;;;5067310;28;8930;-79
2023/10/21 06:05:06;;;;;;;;;0.00;0.00;;;;;;;;5068547;28;8855;-88
2023/10/21 06:07:34;;;;;;;;;0.50;0.50;;;;;;;;5066579;28;8863;-82
2023/10/21 06:10:23;;;;;;;;;;;;;;;;;;;;;
2023/10/21 06:13:09;;;;;;;;;0.00;0.00;;;;;;;;5066678;28;8847;-81
2023/10/21 06:18:51;;;;;;;;;0.00;0.00;;;;;;;;5058591;28;8869;-81
2023/10/21 06:21:46;;;;;;;;;1.50;0.00;;;;;;;;5064465;28;8859;-82
2023/10/21 06:24:32;;;;;;;;;0.00;0.00;;;;;;;;5064554;28;9026;-74
2023/10/21 06:27:22;;;;;;;;;1.50;0.00;;;;;;;;5069369;28;8859;-80
2023/10/21 06:30:34;;;;;;;;;0.00;0.00;;;;;;;;5059950;28;8858;-75
2023/10/21 06:36:21;;;;;;;;;1.50;0.00;;;;;;;;5057618;28;8854;-76
2023/10/21 06:38:52;;;;;;;;;0.00;0.00;;;;;;;;5044550;28;8876;-73
2023/10/21 06:41:23;;;;;;;;;0.50;0.50;;;;;;;;5066242;28;8862;-76
2023/10/21 06:43:52;;;;;;;;;0.00;0.00;;;;;;;;5067834;28;8862;-76
2023/10/21 06:46:19;;;;;;;;;2.00;0.50;;;;;;;;5067764;28;8835;-74
2023/10/21 06:48:50;;;;;;;;;1.25;0.75;;;;;;;;5065970;28;8981;-77
2023/10/21 06:51:18;;;;;;;;;1.00;0.00;;;;;;;;5064878;28;8867;-75
2023/10/21 06:53:45;;;;;;;;;0.00;0.00;;;;;;;;5059453;28;8867;-75
2023/10/21 06:56:13;;;;;;;;;0.25;0.00;;;;;;;;5055385;28;8863;-76
2023/10/21 06:58:47;;;;;;;;;1.50;0.00;;;;;;;;5056300;28;8858;-78
2023/10/21 07:01:17;;;;;;;;;1.50;0.75;;;;;;;;5065174;28;8826;-77
2023/10/21 07:03:45;;;;;;;;;1.50;0.25;;;;;;;;5059852;28;8854;-79
2023/10/21 07:06:14;;;;;;;;;0.00;0.00;;;;;;;;5065645;28;8859;-74
2023/10/21 07:08:41;;;;;;;;;1.00;0.75;;;;;;;;5068407;28;8901;-71
2023/10/21 07:11:10;;;;;;;;;0.00;0.00;;;;;;;;5064876;28;8854;-71
2023/10/21 07:13:41;;;;;;;;;1.00;1.00;;;;;;;;5067978;28;8886;-78
2023/10/21 07:16:10;;;;;;;;;1.00;1.00;;;;;;;;5053274;28;8860;-71
2023/10/21 07:18:37;;;;;;;;;1.00;1.00;;;;;;;;5063856;28;8842;-75
2023/10/21 07:21:05;;;;;;;;;0.75;0.75;;;;;;;;5067793;28;8854;-73
2023/10/21 07:23:34;;;;;;;;;2.00;1.25;;;;;;;;5065547;28;8880;-75
2023/10/21 07:26:01;;;;;;;;;0.00;0.00;;;;;;;;5066333;28;8851;-74
2023/10/21 07:28:30;;;;;;;;;1.00;1.00;;;;;;;;5069075;28;8893;-74
2023/10/21 07:30:57;;;;;;;;;1.25;1.25;;;;;;;;5058323;28;8795;-72
2023/10/21 07:33:25;;;;;;;;;1.00;1.00;;;;;;;;5066847;28;9659;-72
2023/10/21 07:35:52;;;;;;;;;1.00;1.00;;;;;;;;5067144;28;8866;-79
2023/10/21 07:38:20;;;;;;;;;2.00;1.50;;;;;;;;5065434;28;8847;-74
2023/10/21 07:40:50;;;;;;;;;3.00;1.50;;;;;;;;5066738;28;8893;-74
2023/10/21 07:43:17;;;;;;;;;4.00;1.25;;;;;;;;5058877;28;8861;-72
2023/10/21 07:45:46;;;;;;;;;4.00;2.00;;;;;;;;5062658;28;8915;-73
2023/10/21 07:48:13;;;;;;;;;3.25;1.00;;;;;;;;5068175;28;8854;-71
2023/10/21 07:50:42;;;;;;;;;1.25;1.00;;;;;;;;5058089;28;8865;-74
2023/10/21 07:53:10;;;;;;;;;1.00;1.00;;;;;;;;5066065;28;8910;-71
2023/10/21 07:55:37;;;;;;;;;0.50;0.50;;;;;;;;5070712;28;8874;-71
2023/10/21 07:58:08;;;;;;;;;1.75;0.25;;;;;;;;5069928;28;8865;-74
2023/10/21 08:00:35;;;;;;;;;6.00;2.00;;;;;;;;5064166;28;8778;-74
2023/10/21 08:03:05;;;;;;;;;2.00;1.00;;;;;;;;5068349;28;8839;-79
2023/10/21 08:05:32;;;;;;;;;0.25;0.25;;;;;;;;5056807;28;8884;-74
2023/10/21 08:07:59;;;;;;;;;1.00;1.00;;;;;;;;5069513;28;8859;-74
2023/10/21 08:10:29;;;;;;;;;0.50;0.50;;;;;;;;5070243;28;8971;-75
2023/10/21 08:12:56;;;;;;;;;0.50;0.00;;;;;;;;5069018;28;8916;-74
2023/10/21 08:15:25;;;;;;;;;2.00;1.00;;;;;;;;5070601;28;8873;-76
2023/10/21 08:17:53;;;;;;;;;1.00;1.00;;;;;;;;5070019;28;9017;-74
2023/10/21 08:20:20;;;;;;;;;0.50;0.50;;;;;;;;5069719;28;8940;-74
2023/10/21 08:22:47;;;;;;;;;2.00;1.00;;;;;;;;5069475;28;8867;-75
2023/10/21 08:25:15;;;;;;;;;1.00;1.00;;;;;;;;5069700;28;8855;-74
2023/10/21 08:27:43;;;;;;;;;2.50;1.00;;;;;;;;5069595;28;8843;-75
2023/10/21 08:30:11;;;;;;;;;0.00;0.00;;;;;;;;5068703;28;8929;-74
2023/10/21 08:32:39;;;;;;;;;0.00;0.00;;;;;;;;5058931;28;8978;-74
2023/10/21 08:35:07;;;;;;;;;4.25;2.00;;;;;;;;5070695;28;9036;-78
2023/10/21 08:37:34;;;;;;;;;3.00;1.50;;;;;;;;5069275;28;8941;-74
2023/10/21 08:40:07;;;;;;;;;1.00;1.00;;;;;;;;5069234;28;8870;-74
2023/10/21 08:42:35;;;;;;;;;1.75;1.00;;;;;;;;5070102;28;9649;-76
2023/10/21 08:45:09;;;;;;;;;0.25;0.25;;;;;;;;5069211;28;8857;-77
2023/10/21 08:47:37;;;;;;;;;2.00;2.00;;;;;;;;5069898;28;9009;-73
2023/10/21 08:50:07;;;;;;;;;2.00;2.00;;;;;;;;5054038;28;8827;-78
2023/10/21 08:52:37;;;;;;;;;2.50;1.25;;;;;;;;5059780;28;8997;-73
2023/10/21 08:55:05;;;;;;;;;0.00;0.00;;;;;;;;5068833;28;9618;-82
2023/10/21 08:57:33;;;;;;;;;2.50;1.50;;;;;;;;5070043;28;8969;-78
2023/10/21 09:00:00;;;;;;;;;1.50;1.50;;;;;;;;5070926;28;9021;-74
2023/10/21 09:02:27;;;;;;;;;3.50;1.00;;;;;;;;5072036;28;8819;-74
2023/10/21 09:04:55;;;;;;;;;3.50;2.00;;;;;;;;5071889;28;8989;-76
2023/10/21 09:07:25;;;;;;;;;2.75;1.50;;;;;;;;5073277;28;8866;-76
2023/10/21 09:10:08;;;;;;;;;1.75;0.50;;;;;;;;5073228;28;8866;-75
2023/10/21 09:12:37;;;;;;;;;0.75;0.75;;;;;;;;5071088;28;9649;-75
2023/10/21 09:15:06;;;;;;;;;1.50;1.50;;;;;;;;5069085;28;8847;-75
2023/10/21 09:17:38;;;;;;;;;3.00;1.00;;;;;;;;5068908;28;8858;-74
2023/10/21 09:20:11;;;;;;;;;6.00;1.50;;;;;;;;5069134;28;8877;-74
2023/10/21 09:22:45;;;;;;;;;2.25;2.25;;;;;;;;5068636;28;8900;-74
2023/10/21 09:25:18;;;;;;;;;4.50;1.00;;;;;;;;5068876;28;8923;-74
2023/10/21 09:27:54;;;;;;;;;0.50;0.50;;;;;;;;5068457;28;8863;-81
2023/10/21 09:30:22;;;;;;;;;1.75;0.00;;;;;;;;5069811;28;8909;-77
2023/10/21 09:32:50;;;;;;;;;1.50;1.00;;;;;;;;5068956;28;8878;-79
2023/10/21 09:35:21;;;;;;;;;1.00;1.00;;;;;;;;5068818;28;8877;-78
2023/10/21 09:37:50;;;;;;;;;3.00;0.00;;;;;;;;5067874;28;8854;-73
2023/10/21 09:40:21;;;;;;;;;2.50;1.00;;;;;;;;5067619;28;9822;-81
2023/10/21 09:42:52;;;;;;;;;2.50;1.00;;;;;;;;5068586;28;8858;-77
2023/10/21 09:45:20;;;;;;;;;1.00;0.75;;;;;;;;5068007;28;8983;-86
2023/10/21 09:47:47;;;;;;;;;0.75;0.75;;;;;;;;5068366;28;9295;-77
2023/10/21 09:50:15;;;;;;;;;1.50;1.50;;;;;;;;5062014;28;9608;-78
2023/10/21 09:52:49;;;;;;;;;1.00;1.00;;;;;;;;5060728;28;9006;-88
2023/10/21 09:55:25;;;;;;;;;1.00;1.00;;;;;;;;5068428;28;8985;-79
2023/10/21 09:57:54;;;;;;;;;2.75;0.25;;;;;;;;5069953;28;8866;-79
2023/10/21 10:00:24;;;;;;;;;3.75;1.00;;;;;;;;5067987;28;8851;-75
2023/10/21 10:02:53;;;;;;;;;2.00;0.50;;;;;;;;5067729;28;8865;-78
2023/10/21 10:05:21;;;;;;;;;1.00;1.00;;;;;;;;5068182;28;8858;-77
2023/10/21 10:07:49;;;;;;;;;1.00;1.00;;;;;;;;5067677;28;8879;-76
2023/10/21 10:10:19;;;;;;;;;0.50;0.50;;;;;;;;5068136;28;8869;-75
2023/10/21 10:12:53;;;;;;;;;2.25;1.00;;;;;;;;5067616;28;8862;-73
2023/10/21 10:15:33;;;;;;;;;4.75;0.75;;;;;;;;5067439;28;8889;-75
2023/10/21 10:18:02;;;;;;;;;1.00;1.00;;;;;;;;5067319;28;8879;-77
2023/10/21 10:20:30;;;;;;;;;1.00;1.00;;;;;;;;5068112;28;8870;-75
2023/10/21 10:23:03;;;;;;;;;3.50;1.25;;;;;;;;5056396;28;8969;-76
2023/10/21 10:25:36;;;;;;;;;1.00;1.00;;;;;;;;5069072;28;8859;-78
2023/10/21 10:28:07;;;;;;;;;1.50;1.50;;;;;;;;5068645;28;8854;-77
2023/10/21 10:30:38;;;;;;;;;0.25;0.25;;;;;;;;5066577;28;8849;-77
2023/10/21 10:33:08;;;;;;;;;1.25;1.25;;;;;;;;5068716;28;9675;-76
2023/10/21 10:35:39;;;;;;;;;1.75;1.75;;;;;;;;5068108;28;8937;-82
2023/10/21 10:38:20;;;;;;;;;1.00;1.00;;;;;;;;5066838;28;9653;-78
2023/10/21 10:40:49;;;;;;;;;0.25;0.25;;;;;;;;5068710;28;8873;-78
2023/10/21 10:43:22;;;;;;;;;3.50;2.00;;;;;;;;5068078;28;8993;-79
2023/10/21 10:45:52;;;;;;;;;4.50;2.00;;;;;;;;5071258;28;8901;-76
2023/10/21 10:48:22;;;;;;;;;1.50;1.25;;;;;;;;5070784;28;8959;-78
2023/10/21 10:50:51;;;;;;;;;4.50;1.25;;;;;;;;5061799;28;8877;-79
2023/10/21 10:53:20;;;;;;;;;1.75;1.75;;;;;;;;5066835;28;8894;-76
2023/10/21 10:55:50;;;;;;;;;1.00;1.00;;;;;;;;5071593;28;8858;-79
2023/10/21 10:58:19;;;;;;;;;2.00;2.00;;;;;;;;5067784;28;8862;-79
2023/10/21 11:00:46;;;;;;;;;2.00;2.00;;;;;;;;5068008;28;8810;-74
2023/10/21 11:03:24;;;;;;;;;2.00;1.00;;;;;;;;5067122;28;8867;-77
2023/10/21 11:05:51;;;;;;;;;1.75;1.75;;;;;;;;5065859;28;8851;-78
2023/10/21 11:08:21;;;;;;;;;2.00;0.75;;;;;;;;5055063;28;8875;-78
2023/10/21 11:10:53;;;;;;;;;2.25;2.00;;;;;;;;5053824;28;8854;-76
2023/10/21 11:13:23;;;;;;;;;0.75;0.75;;;;;;;;5058872;28;8861;-77
2023/10/21 11:15:54;;;;;;;;;1.50;1.00;;;;;;;;5050839;28;8841;-78
2023/10/21 11:18:22;;;;;;;;;1.75;1.00;;;;;;;;5074493;28;8859;-77
2023/10/21 11:20:53;;;;;;;;;2.50;0.75;;;;;;;;5061279;28;9005;-79
2023/10/21 11:23:24;;;;;;;;;1.00;1.00;;;;;;;;5072718;28;8973;-78
2023/10/21 11:25:55;;;;;;;;;1.50;1.50;;;;;;;;5070133;28;8889;-77
2023/10/21 11:28:23;;;;;;;;;1.25;1.25;;;;;;;;5070454;28;8912;-77
2023/10/21 11:30:52;;;;;;;;;1.00;1.00;;;;;;;;5068515;28;8833;-80
2023/10/21 11:33:19;;;;;;;;;1.50;1.00;;;;;;;;5070163;28;8883;-75
2023/10/21 11:35:48;;;;;;;;;6.00;1.33;;;;;;;;5069256;28;8850;-75
2023/10/21 11:38:21;;;;;;;;;1.50;1.50;;;;;;;;5070641;28;8888;-78
2023/10/21 11:40:49;;;;;;;;;3.00;1.75;;;;;;;;5059880;28;8858;-82
2023/10/21 11:43:19;;;;;;;;;0.00;0.00;;;;;;;;5070757;28;8855;-83
2023/10/21 11:45:47;;;;;;;;;1.00;0.00;;;;;;;;5072896;28;8851;-74
2023/10/21 11:48:17;;;;;;;;;1.00;0.00;;;;;;;;5072384;28;8833;-79
2023/10/21 11:50:45;;;;;;;;;0.00;0.00;;;;;;;;5053310;28;8960;-77
2023/10/21 11:53:14;;;;;;;;;3.25;0.75;;;;;;;;5065596;28;8881;-82
2023/10/21 12:12:38;;;;;;;;;2.25;1.75;;;;;;;;5072810;28;8843;-82
2023/10/21 12:20:51;;;;;;;;;2.00;0.25;;;;;;;;5039880;28;8858;-80
2023/10/21 12:23:51;;;;;;;;;0.25;0.25;;;;;;;;5072373;28;8843;-83
2023/10/21 12:26:38;;;;;;;;;0.25;0.00;;;;;;;;5063820;28;8842;-80
2023/10/21 12:35:11;;;;;;;;;0.25;0.25;;;;;;;;5018112;28;8877;-79
2023/10/21 12:40:36;;;;;;;;;0.00;0.00;;;;;;;;5070517;28;9044;-80
2023/10/21 12:43:24;;;;;;;;;1.00;1.00;;;;;;;;5070511;28;8881;-77
2023/10/21 12:45:54;;;;;;;;;0.50;0.50;;;;;;;;5059227;28;8850;-80
2023/10/21 12:48:27;;;;;;;;;0.75;0.75;;;;;;;;5070027;28;8865;-86
2023/10/21 12:50:54;;;;;;;;;2.00;0.25;;;;;;;;5060998;28;8846;-82
2023/10/21 12:53:22;;;;;;;;;0.75;0.75;;;;;;;;5066978;28;8847;-80
2023/10/21 12:55:49;;;;;;;;;0.00;0.00;;;;;;;;5070330;28;8866;-82
2023/10/21 12:58:16;;;;;;;;;0.75;0.75;;;;;;;;5070026;28;8861;-81
2023/10/21 13:00:44;;;;;;;;;1.25;0.00;;;;;;;;5070313;28;8779;-83
2023/10/21 13:03:11;;;;;;;;;0.50;0.50;;;;;;;;5069700;28;9000;-84
2023/10/21 13:05:40;;;;;;;;;0.00;0.00;;;;;;;;5069568;28;8851;-80
2023/10/21 13:08:09;;;;;;;;;2.00;1.00;;;;;;;;5072231;28;9570;-78
2023/10/21 13:10:36;;;;;;;;;2.50;1.25;;;;;;;;5074580;28;8838;-82
2023/10/21 13:13:04;;;;;;;;;2.25;0.00;;;;;;;;5070232;28;8838;-78
2023/10/21 13:15:33;;;;;;;;;0.75;0.75;;;;;;;;5069674;28;8885;-78
2023/10/21 13:18:03;;;;;;;;;1.75;1.50;;;;;;;;5069812;28;8862;-80
2023/10/21 13:20:31;;;;;;;;;1.75;1.00;;;;;;;;5068819;28;9009;-77
2023/10/21 13:22:59;;;;;;;;;1.00;0.25;;;;;;;;5070039;28;9028;-85
2023/10/21 13:25:26;;;;;;;;;2.00;0.00;;;;;;;;5065072;28;8842;-77
2023/10/21 13:27:54;;;;;;;;;1.25;0.75;;;;;;;;5069378;28;9001;-81
2023/10/21 13:30:21;;;;;;;;;2.25;1.00;;;;;;;;5068801;28;8879;-81
2023/10/21 13:32:49;;;;;;;;;1.00;0.00;;;;;;;;5059124;28;8866;-76
2023/10/21 13:35:17;;;;;;;;;0.50;0.00;;;;;;;;5069070;28;8907;-79
2023/10/21 13:37:48;;;;;;;;;2.00;0.00;;;;;;;;5069538;28;8920;-76
2023/10/21 13:40:18;;;;;;;;;1.75;0.25;;;;;;;;5071206;28;8982;-80
2023/10/21 13:42:46;;;;;;;;;0.25;0.25;;;;;;;;5069713;28;8858;-78
2023/10/21 13:45:19;;;;;;;;;2.00;1.00;;;;;;;;5068971;28;8842;-84
2023/10/21 13:47:48;;;;;;;;;0.50;0.25;;;;;;;;5069105;28;8855;-78
2023/10/21 13:50:17;;;;;;;;;2.25;0.75;;;;;;;;5066864;28;8843;-79
2023/10/21 13:52:45;;;;;;;;;0.50;0.00;;;;;;;;5069621;28;8831;-81
2023/10/21 13:55:15;;;;;;;;;0.50;0.00;;;;;;;;5069404;28;8851;-83
2023/10/21 13:57:45;;;;;;;;;0.25;0.25;;;;;;;;5069999;28;8864;-83
2023/10/21 14:02:54;;;;;;;;;0.75;0.00;;;;;;;;5066968;28;8872;-82
2023/10/21 14:05:22;;;;;;;;;0.00;0.00;;;;;;;;5070726;28;8850;-85
2023/10/21 14:07:49;;;;;;;;;0.00;0.00;;;;;;;;5073237;28;8834;-79
2023/10/21 14:10:17;;;;;;;;;0.00;0.00;;;;;;;;5075203;28;8858;-82
2023/10/21 14:12:47;;;;;;;;;2.50;0.75;;;;;;;;5073839;28;8854;-86
2023/10/21 14:15:17;;;;;;;;;0.75;0.75;;;;;;;;5072888;28;8870;-88
2023/10/21 14:17:45;;;;;;;;;2.50;0.75;;;;;;;;5074069;28;8854;-85
2023/10/21 14:20:12;;;;;;;;;0.00;0.00;;;;;;;;5073291;28;9692;-83
2023/10/21 14:22:40;;;;;;;;;1.75;0.00;;;;;;;;5067625;28;8969;-88
2023/10/21 14:25:08;;;;;;;;;0.50;0.00;;;;;;;;5068382;28;8894;-89
2023/10/21 14:27:37;;;;;;;;;3.75;2.00;;;;;;;;5067244;28;8966;-84
2023/10/21 14:30:09;;;;;;;;;1.00;0.00;;;;;;;;5067701;28;9017;-79
2023/10/21 14:32:37;;;;;;;;;0.00;0.00;;;;;;;;5068832;28;8931;-87
2023/10/21 14:35:07;;;;;;;;;0.00;0.00;;;;;;;;5069816;28;8851;-84
2023/10/21 14:37:34;;;;;;;;;11.25;9.75;;;;;;;;5069209;28;8863;-78
2023/10/21 14:40:06;;;;;;;;;1.00;1.00;;;;;;;;5070402;28;8985;-79
2023/10/21 14:42:35;;;;;;;;;1.00;1.00;;;;;;;;5068707;28;8851;-78
2023/10/21 14:45:04;;;;;;;;;1.50;0.25;;;;;;;;5069096;28;8926;-83
2023/10/21 14:47:35;;;;;;;;;1.00;1.00;;;;;;;;5068401;28;9046;-79
2023/10/21 14:50:05;;;;;;;;;3.50;3.00;;;;;;;;5065231;28;8851;-82
2023/10/21 14:52:37;;;;;;;;;1.25;1.25;;;;;;;;5058568;28;8859;-79
2023/10/21 14:55:05;;;;;;;;;2.25;0.75;;;;;;;;5067847;28;8944;-79
2023/10/21 14:57:36;;;;;;;;;5.75;4.75;;;;;;;;5067115;28;8965;-82
2023/10/21 15:00:08;;;;;;;;;2.75;2.75;;;;;;;;5066735;28;8859;-80
2023/10/21 15:02:37;;;;;;;;;0.25;0.25;;;;;;;;5066234;28;8839;-78
2023/10/21 15:05:06;;;;;;;;;0.00;0.00;;;;;;;;5068789;28;8851;-82
2023/10/21 15:07:36;;;;;;;;;0.00;0.00;;;;;;;;5066594;28;8858;-83
2023/10/21 15:10:10;;;;;;;;;0.25;0.25;;;;;;;;5068589;28;8851;-80
2023/10/21 15:12:38;;;;;;;;;1.75;0.00;;;;;;;;5067035;28;8846;-87
2023/10/21 15:15:06;;;;;;;;;1.50;0.00;;;;;;;;5066156;28;8863;-84
2023/10/21 15:17:34;;;;;;;;;0.50;0.50;;;;;;;;5066541;28;8855;-75
2023/10/21 15:20:04;;;;;;;;;1.50;1.50;;;;;;;;5066706;28;8867;-76
2023/10/21 15:22:31;;;;;;;;;3.00;0.50;;;;;;;;5064955;28;8853;-77
2023/10/21 15:24:59;;;;;;;;;2.25;1.00;;;;;;;;5066785;28;8863;-76
2023/10/21 15:27:27;;;;;;;;;0.50;0.25;;;;;;;;5067343;28;8859;-77
2023/10/21 15:29:57;;;;;;;;;2.00;2.00;;;;;;;;5068039;28;8881;-76
2023/10/21 15:32:27;;;;;;;;;2.75;2.00;;;;;;;;5064004;28;8835;-79
2023/10/21 15:34:54;;;;;;;;;2.00;2.00;;;;;;;;5066364;28;8866;-76
2023/10/21 15:37:23;;;;;;;;;1.75;1.50;;;;;;;;5065735;28;8823;-75
2023/10/21 15:39:50;;;;;;;;;1.00;1.00;;;;;;;;5064826;28;8850;-78
2023/10/21 15:42:19;;;;;;;;;1.00;1.00;;;;;;;;5065104;28;9679;-80
2023/10/21 15:44:47;;;;;;;;;0.00;0.00;;;;;;;;5065758;28;8855;-74
2023/10/21 15:47:14;;;;;;;;;0.25;0.00;;;;;;;;5066214;28;8843;-75
2023/10/21 15:49:41;;;;;;;;;0.00;0.00;;;;;;;;5064729;28;8863;-73
2023/10/21 15:52:09;;;;;;;;;0.25;0.00;;;;;;;;5070065;28;8939;-81